Latest Weather Observations for Cairns

IDQ60801

Issued at 4:05 pm EST Tuesday 23 September 2014 (issued every 30 minutes, with the page automatically refreshed every 10 minutes)

About weather observations | Map of weather stations | Latest weather observations for QLD | Other Formats
Station Details ID: 031011 Name: CAIRNS AERO Lat: -16.87 Lon: 145.75 Height: 2.22 m
Data from the previous 72 hours. | See also: Recent months at Cairns
Date/Time
EST
Temp
°C
App
Temp
°C
Dew
Point
Rel
Hum
%
Delta-T
°C
Wind Press
QNH
hPa
Press
MSL
hPa
Rain
since 9 am
mm
Dir
 
Spd
km/h
Gust
km/h
Spd
kts
Gust
kts
23/04:00pm 26.4 23.3 17.5 58 5.6 SE 30 37 16 20 1016.0 - 0.0
23/03:30pm 27.1 23.4 17.0 54 6.3 SE 32 39 17 21 1015.9 - 0.0
23/03:00pm 28.5 27.4 20.3 61 5.4 ESE 26 35 14 19 1016.0 1015.9 0.0
23/02:30pm 28.5 26.3 19.6 58 5.8 ESE 30 37 16 20 1015.9 - 0.0
23/02:00pm 28.3 26.3 20.0 60 5.4 E 30 39 16 21 1016.0 - 0.0
23/01:30pm 29.1 27.2 19.4 55 6.3 ESE 28 37 15 20 1016.4 - 0.0
23/01:00pm 28.5 26.3 18.7 55 6.3 E 28 41 15 22 1016.7 - 0.0
23/12:30pm 28.3 26.4 18.6 55 6.2 E 26 37 14 20 1017.2 - 0.0
23/12:00pm 26.9 25.1 18.8 61 5.2 E 26 33 14 18 1017.9 1017.8 0.0
23/11:30am 26.7 25.3 18.9 62 5.0 E 24 32 13 17 1018.2 - 0.0
23/11:00am 25.9 25.5 19.4 67 4.2 ESE 20 32 11 17 1018.5 - 0.0
23/10:30am 27.3 25.3 18.2 57 5.8 ESE 26 39 14 21 1018.7 - 0.0
23/10:00am 26.7 24.6 18.0 59 5.5 ESE 26 32 14 17 1019.0 - 0.0
23/09:30am 25.9 25.0 18.3 63 4.8 SE 20 26 11 14 1018.9 - 0.0
23/09:00am 25.6 25.5 18.7 65 4.4 SE 17 24 9 13 1018.8 1018.7 0.0
23/08:30am 25.4 26.2 19.1 68 4.0 SSE 13 19 7 10 1018.7 - 0.0
23/08:00am 24.6 25.5 19.3 72 3.4 SSE 13 20 7 11 1018.5 - 0.0
23/07:30am 23.8 25.1 19.4 76 2.8 SSE 11 15 6 8 1017.9 - 0.0
23/07:00am 23.3 24.6 19.2 78 2.6 S 11 17 6 9 1017.4 - 0.0
23/06:30am 22.6 23.9 19.3 81 2.1 SE 11 13 6 7 1017.1 - 0.0
23/06:00am 22.4 23.3 19.2 82 2.0 SSE 13 15 7 8 1016.7 1016.6 0.0
23/05:30am 22.5 23.5 19.5 83 1.9 SSE 13 17 7 9 1016.4 - 0.0
23/05:00am 22.6 24.4 19.5 82 2.0 SSE 9 15 5 8 1016.2 - 0.0
23/04:30am 22.4 23.5 19.7 85 1.7 SSE 13 17 7 9 1016.0 - 0.0
23/04:00am 22.8 24.2 19.5 81 2.1 SSE 11 15 6 8 1015.8 - 0.0
23/03:30am 22.6 23.9 19.3 81 2.1 SSE 11 13 6 7 1015.8 - 0.0
23/03:00am 22.9 23.7 19.1 79 2.4 S 13 19 7 10 1015.6 1015.5 0.0
23/02:30am 22.5 23.5 19.4 82 2.0 S 13 19 7 10 1015.7 - 0.0
23/02:00am 22.6 24.0 19.5 82 2.0 S 11 15 6 8 1015.9 - 0.0
23/01:30am 23.0 23.6 19.4 80 2.3 SSE 15 20 8 11 1016.0 - 0.0
23/01:00am 23.2 24.2 19.4 79 2.4 SSE 13 19 7 10 1016.5 - 0.0
23/12:30am 23.0 24.1 19.7 82 2.1 S 13 20 7 11 1016.6 - 0.0
 
Date/Time
EST
Temp
°C
App
Temp
°C
Dew
Point
Rel
Hum
%
Delta-T
°C
Wind Press
QNH
hPa
Press
MSL
hPa
Rain
since 9 am
mm
Dir
 
Spd
km/h
Gust
km/h
Spd
kts
Gust
kts
22/11:58pm 23.2 24.5 19.3 79 2.5 S 11 17 6 9 1016.8 - 0.0
22/11:30pm 23.4 24.7 19.2 77 2.7 S 11 15 6 8 1017.1 - 0.0
22/11:00pm 23.3 24.6 19.2 78 2.6 SSE 11 13 6 7 1017.4 - 0.0
22/10:30pm 23.1 24.4 19.2 79 2.5 SSE 11 15 6 8 1017.4 - 0.0
22/10:00pm 23.3 24.5 19.0 77 2.7 SSE 11 15 6 8 1017.3 - 0.0
22/09:30pm 23.1 24.3 19.0 78 2.6 SSE 11 22 6 12 1017.3 - 0.0
22/09:00pm 23.7 24.0 18.8 74 3.1 SSE 15 19 8 10 1017.1 1017.0 0.0
22/08:30pm 23.8 24.2 18.9 74 3.1 SSE 15 24 8 13 1016.8 - 0.0
22/08:00pm 24.2 24.8 18.5 70 3.6 SSE 13 19 7 10 1016.5 - 0.0
22/07:30pm 24.2 23.6 18.5 70 3.6 SE 19 24 10 13 1016.2 - 0.0
22/07:00pm 24.0 24.5 18.3 70 3.6 SSE 13 19 7 10 1015.9 - 0.0
22/06:30pm 24.3 24.3 18.1 68 3.9 SE 15 24 8 13 1015.6 - 0.0
22/06:00pm 24.7 23.7 17.5 64 4.5 ESE 19 26 10 14 1015.0 1014.9 0.0
22/05:30pm 24.9 24.4 17.9 65 4.4 SE 17 26 9 14 1014.8 - 0.0
22/05:00pm 25.9 23.8 17.2 58 5.4 E 24 32 13 17 1014.5 - 0.0
22/04:30pm 26.8 24.6 16.8 54 6.2 E 24 32 13 17 1014.2 - 0.0
22/04:00pm 27.4 25.0 17.4 54 6.3 E 26 32 14 17 1014.1 - 0.0
22/03:30pm 27.4 25.1 17.7 55 6.1 E 26 32 14 17 1014.0 - 0.0
22/03:00pm 27.8 26.1 18.0 55 6.2 E 24 32 13 17 1014.0 1013.9 0.0
22/02:30pm 27.7 25.7 17.4 53 6.5 E 24 32 13 17 1014.3 - 0.0
22/02:00pm 28.7 27.2 16.7 48 7.5 NE 20 28 11 15 1014.6 - 0.0
22/01:30pm 28.6 25.8 15.3 44 8.1 E 24 32 13 17 1014.9 - 0.0
22/01:00pm 28.1 25.2 15.1 45 7.9 E 24 30 13 16 1015.4 - 0.0
22/12:30pm 28.7 26.6 16.1 46 7.8 ESE 22 30 12 16 1015.9 - 0.0
22/12:00pm 28.1 26.2 15.7 46 7.6 ENE 20 32 11 17 1016.4 1016.3 0.0
22/11:30am 27.6 26.3 15.9 49 7.2 E 17 22 9 12 1017.0 - 0.0
22/11:00am 27.8 26.8 15.7 47 7.4 ENE 15 22 8 12 1017.5 - 0.0
22/10:30am 27.7 27.3 16.2 49 7.1 ESE 13 20 7 11 1017.7 - 0.0
22/10:00am 26.5 25.7 16.2 53 6.3 SE 15 24 8 13 1017.9 - 0.0
22/09:30am 26.0 24.8 16.2 54 6.0 SE 17 30 9 16 1018.1 - 0.0
22/09:00am 25.3 24.3 16.7 59 5.3 SSE 17 24 9 13 1018.2 1018.1 0.0
22/08:30am 25.1 24.6 17.0 60 5.0 S 15 26 8 14 1018.2 - 0.0
22/08:00am 24.0 23.8 16.8 64 4.4 S 13 19 7 10 1018.0 - 0.0
22/07:30am 23.4 23.1 16.5 65 4.2 S 13 17 7 9 1017.6 - 0.0
22/07:00am 22.8 23.1 17.1 70 3.5 SSE 11 15 6 8 1017.2 - 0.0
22/06:30am 21.9 22.4 16.6 72 3.2 S 9 15 5 8 1016.6 - 0.0
22/06:00am 21.5 22.0 16.5 73 3.0 S 9 13 5 7 1016.3 1016.2 0.0
22/05:30am 21.5 21.6 16.5 73 3.0 S 11 15 6 8 1016.3 - 0.0
22/05:00am 21.9 22.1 16.8 73 3.1 S 11 17 6 9 1015.9 - 0.0
22/04:30am 22.2 22.1 17.0 72 3.2 S 13 17 7 9 1015.8 - 0.0
22/04:00am 21.9 22.3 17.2 74 2.9 S 11 17 6 9 1015.6 - 0.0
22/03:30am 22.4 22.8 17.2 72 3.2 S 11 17 6 9 1015.7 - 0.0
22/03:00am 22.7 22.7 17.3 71 3.3 S 13 17 7 9 1015.8 1015.7 0.0
22/02:30am 22.8 23.2 17.3 71 3.4 SSE 11 13 6 7 1016.3 - 0.0
22/02:00am 22.6 22.7 17.4 72 3.2 S 13 19 7 10 1016.5 - 0.0
22/01:30am 22.0 22.4 18.1 78 2.4 SSE 13 17 7 9 1016.8 - 0.0
22/01:00am 21.5 22.1 18.6 83 1.8 S 13 15 7 8 1017.1 - 0.0
22/12:30am 22.8 22.6 17.5 72 3.3 S 15 20 8 11 1017.2 - 0.0
22/12:00am 22.7 22.5 17.5 72 3.2 SSE 15 20 8 11 1017.5 1017.4 0.0
 
Date/Time
EST
Temp
°C
App
Temp
°C
Dew
Point
Rel
Hum
%
Delta-T
°C
Wind Press
QNH
hPa
Press
MSL
hPa
Rain
since 9 am
mm
Dir
 
Spd
km/h
Gust
km/h
Spd
kts
Gust
kts
21/11:30pm 22.7 22.9 17.7 73 3.1 S 13 17 7 9 1017.7 - 0.0
21/11:00pm 22.4 22.6 17.7 75 2.9 SSE 13 17 7 9 1017.9 - 0.0
21/10:30pm 22.7 22.9 17.7 73 3.1 S 13 19 7 10 1018.3 - 0.0
21/10:00pm 22.8 23.1 17.8 73 3.1 S 13 19 7 10 1018.3 - 0.0
21/09:30pm 22.9 23.2 17.9 73 3.1 SSE 13 19 7 10 1018.1 - 0.0
21/09:00pm 23.1 23.1 18.0 73 3.2 SSE 15 20 8 11 1017.9 1017.8 0.0
21/08:30pm 23.3 22.6 17.3 69 3.7 SSE 17 24 9 13 1017.3 - 0.0
21/08:00pm 22.9 22.9 17.2 70 3.5 SSE 13 15 7 8 1017.1 - 0.0
21/07:30pm 23.3 23.3 17.3 69 3.7 SSE 13 17 7 9 1016.9 - 0.0
21/07:00pm 23.9 21.6 17.6 68 3.9 SE 26 32 14 17 1016.4 - 0.0
21/06:30pm 23.9 21.9 18.3 71 3.5 SE 26 32 14 17 1016.4 - 0.0
21/06:00pm 24.3 22.8 17.7 66 4.1 SSE 22 32 12 17 1016.2 1016.1 0.0
21/05:30pm 24.9 22.9 17.5 63 4.6 SE 24 32 13 17 1015.9 - 0.0
21/05:00pm 25.9 23.0 16.1 54 6.0 SE 26 33 14 18 1015.7 - 0.0
21/04:30pm 26.4 24.1 16.7 55 6.0 ESE 24 33 13 18 1015.4 - 0.0
21/04:00pm 27.2 25.1 15.2 47 7.3 SE 20 24 11 13 1015.4 - 0.0
21/03:30pm 26.9 24.5 14.4 46 7.5 ESE 20 30 11 16 1015.3 - 0.0
21/03:00pm 28.1 25.4 14.7 44 8.1 E 22 30 12 16 1015.3 1015.2 0.0
21/02:30pm 27.8 26.4 16.5 50 7.0 E 19 28 10 15 1015.8 - 0.0
21/02:00pm 27.8 25.2 14.9 45 7.8 ESE 22 30 12 16 1015.9 - 0.0
21/01:30pm 28.6 26.3 16.7 48 7.4 E 24 32 13 17 1016.1 - 0.0
21/01:00pm 28.4 26.3 16.3 47 7.5 E 22 32 12 17 1016.5 - 0.0
21/12:30pm 27.8 26.1 16.3 49 7.1 ESE 20 28 11 15 1016.9 - 0.0
21/12:00pm 28.3 27.1 16.2 47 7.5 E 17 26 9 14 1017.2 1017.1 0.0
21/11:30am 27.5 25.9 14.9 46 7.6 SE 17 28 9 15 1017.8 - 0.0
21/11:00am 27.8 26.2 16.5 50 7.0 SE 20 30 11 16 1018.3 - 0.0
21/10:30am 27.1 25.5 16.6 52 6.5 SSE 20 30 11 16 1018.6 - 0.0
21/10:00am 27.8 26.2 16.5 50 7.0 SSE 20 32 11 17 1018.9 - 0.0
21/09:30am 27.1 25.9 17.0 54 6.3 SSE 19 28 10 15 1018.9 - 0.0
21/09:00am 26.2 25.1 17.2 57 5.6 S 19 26 10 14 1018.9 1018.8 0.0
21/08:30am 24.3 22.8 16.8 63 4.6 SSE 20 30 11 16 1018.5 - 0.0
21/08:00am 23.8 22.7 16.4 63 4.5 S 17 28 9 15 1018.1 - 0.0
21/07:30am 22.7 22.0 16.3 67 3.9 SSE 15 24 8 13 1017.7 - 0.0
21/07:00am 20.4 18.3 15.1 71 3.1 SE 20 26 11 14 1017.2 - 0.0
21/06:30am 21.7 20.6 16.4 72 3.2 S 17 26 9 14 1016.6 - 0.0
21/06:00am 21.6 20.4 16.1 71 3.3 S 17 28 9 15 1016.4 1016.3 0.0
21/05:30am 19.3 17.9 14.5 74 2.8 SE 15 19 8 10 1016.2 - 0.0
21/05:00am 19.4 18.0 14.4 73 2.9 SE 15 19 8 10 1015.9 - 0.0
21/04:30am 19.4 17.4 14.0 71 3.1 SE 17 19 9 10 1015.6 - 0.0
21/04:00am 19.7 17.6 13.6 68 3.5 SE 17 22 9 12 1015.4 - 0.0
21/03:30am 21.2 19.7 15.3 69 3.5 SE 17 22 9 12 1015.3 - 0.0
21/03:00am 20.0 17.4 13.9 68 3.5 SE 20 24 11 13 1015.5 1015.4 0.0
21/02:30am 19.3 16.0 14.1 72 3.0 SE 24 28 13 15 1015.8 - 0.0
21/02:00am 19.5 16.9 14.9 75 2.7 SE 22 28 12 15 1015.9 - 0.0
21/01:30am 21.7 21.8 16.4 72 3.2 S 11 17 6 9 1016.1 - 0.0
21/01:00am 20.1 20.0 15.0 72 3.0 SSE 9 11 5 6 1016.8 - 0.0
21/12:30am 17.9 20.1 16.4 91 0.9 CALM 0 0 0 0 1017.1 - 0.0
21/12:00am 18.8 20.8 16.1 84 1.6 CALM 0 0 0 0 1017.2 1017.1 0.0
 
Date/Time
EST
Temp
°C
App
Temp
°C
Dew
Point
Rel
Hum
%
Delta-T
°C
Wind Press
QNH
hPa
Press
MSL
hPa
Rain
since 9 am
mm
Dir
 
Spd
km/h
Gust
km/h
Spd
kts
Gust
kts
20/11:30pm 21.2 22.4 16.8 76 2.7 SSW 6 11 3 6 1017.3 - 0.0
20/11:00pm 21.3 21.5 16.7 75 2.8 SE 11 13 6 7 1017.4 - 0.0
20/10:30pm 21.4 21.6 16.8 75 2.8 ESE 11 13 6 7 1017.4 - 0.0
20/10:00pm 21.7 22.3 16.8 73 3.0 SSE 9 15 5 8 1017.2 - 0.0
20/09:30pm 21.6 23.0 17.4 77 2.6 SSE 6 13 3 7 1017.2 - 0.0
20/09:00pm 21.8 23.1 17.6 77 2.6 S 7 11 4 6 1017.2 1017.1 0.0
20/08:30pm 20.7 22.6 16.6 77 2.5 SSE 2 7 1 4 1017.1 - 0.0
20/08:00pm 20.3 21.8 15.6 74 2.8 SSE 2 7 1 4 1016.8 - 0.0
20/07:30pm 20.7 21.4 14.5 67 3.6 WSW 4 7 2 4 1016.6 - 0.0
20/07:00pm 21.8 21.7 13.9 61 4.6 SSE 7 9 4 5 1016.1 - 0.0
20/06:30pm 24.0 22.7 13.7 52 6.0 E 13 17 7 9 1015.6 - 0.0
20/06:00pm 25.0 23.1 12.9 47 7.0 E 15 19 8 10 1015.0 1014.9 0.0
20/05:30pm 25.4 23.3 12.4 44 7.5 ENE 15 20 8 11 1014.7 - 0.0
20/05:00pm 26.5 23.1 9.1 33 9.5 E 17 24 9 13 1014.3 - 0.0
20/04:30pm 26.7 23.0 10.2 35 9.2 E 20 30 11 16 1013.9 - 0.0

Other Formats:

Comma delimited format used in spreadsheet applications
http://www.bom.gov.au/fwo/IDQ60801/IDQ60801.94287.axf

JavaScript Object Notation format (JSON) in row-major order
http://www.bom.gov.au/fwo/IDQ60801/IDQ60801.94287.json